Time;durP1;ratioP1;P1;durP2;ratioP2;P2;SDS_P1;SDS_P2;PMS_P1;PMS_P2;Temp;Humidity;BMP_temperature;BMP_pressure;BME280_temperature;BME280_humidity;BME280_pressure;Samples;Min_cycle;Max_cycle;Signal;HPM_P1;HPM_P2
2020/12/02 00:02:09;;;;;;;23.23;15.70;;;;;;;;;;5060605;28;20485;-85
2020/12/02 00:04:34;;;;;;;26.38;18.33;;;;;;;;;;5061595;28;20390;-83
2020/12/02 00:07:00;;;;;;;26.40;17.13;;;;;;;;;;5062186;28;20213;-82
2020/12/02 00:09:25;;;;;;;26.40;17.15;;;;;;;;;;5067004;28;20298;-82
2020/12/02 00:11:51;;;;;;;23.83;16.27;;;;;;;;;;5056558;28;20017;-83
2020/12/02 00:14:24;;;;;;;25.38;17.58;;;;;;;;;;5061624;28;20493;-83
2020/12/02 00:16:50;;;;;;;28.13;18.65;;;;;;;;;;5048697;28;20021;-82
2020/12/02 00:19:16;;;;;;;26.65;18.15;;;;;;;;;;5059804;28;20550;-82
2020/12/02 00:21:56;;;;;;;29.02;17.98;;;;;;;;;;5059331;28;20099;-83
2020/12/02 00:24:21;;;;;;;22.23;15.38;;;;;;;;;;5059094;28;20044;-82
2020/12/02 00:26:46;;;;;;;23.47;15.63;;;;;;;;;;5059167;28;20075;-83
2020/12/02 00:29:12;;;;;;;21.13;14.73;;;;;;;;;;5066119;28;20024;-82
2020/12/02 00:31:37;;;;;;;24.03;15.40;;;;;;;;;;5056695;28;20076;-82
2020/12/02 00:34:02;;;;;;;22.47;14.97;;;;;;;;;;5061907;28;20028;-82
2020/12/02 00:36:27;;;;;;;21.23;14.50;;;;;;;;;;5039697;28;20021;-81
2020/12/02 00:38:52;;;;;;;22.83;15.32;;;;;;;;;;5058702;28;20021;-82
2020/12/02 00:41:17;;;;;;;24.47;15.60;;;;;;;;;;5058474;28;20096;-82
2020/12/02 00:43:43;;;;;;;24.83;15.67;;;;;;;;;;5063757;28;20028;-82
2020/12/02 00:46:09;;;;;;;20.48;13.32;;;;;;;;;;5064594;28;20265;-82
2020/12/02 00:48:34;;;;;;;21.80;14.65;;;;;;;;;;5057043;28;20036;-81
2020/12/02 00:51:00;;;;;;;21.98;14.90;;;;;;;;;;5063099;28;20514;-82
2020/12/02 00:53:27;;;;;;;25.52;16.63;;;;;;;;;;5052450;28;20028;-82
2020/12/02 00:55:53;;;;;;;26.70;15.25;;;;;;;;;;5053606;28;20115;-82
2020/12/02 00:58:31;;;;;;;24.67;14.73;;;;;;;;;;5057643;28;20103;-82
2020/12/02 01:00:59;;;;;;;23.63;14.82;;;;;;;;;;5067658;28;20107;-82
2020/12/02 01:03:26;;;;;;;21.73;14.50;;;;;;;;;;5062205;28;20020;-82
2020/12/02 01:05:52;;;;;;;28.65;17.48;;;;;;;;;;5064267;28;20344;-81
2020/12/02 01:08:23;;;;;;;28.33;17.50;;;;;;;;;;5055830;28;20502;-83
2020/12/02 01:10:51;;;;;;;30.48;16.67;;;;;;;;;;5059544;28;20098;-84
2020/12/02 01:13:17;;;;;;;28.73;17.42;;;;;;;;;;5062481;28;20395;-84
2020/12/02 01:15:42;;;;;;;30.40;17.03;;;;;;;;;;5063651;28;20040;-85
2020/12/02 01:18:16;;;;;;;22.48;14.45;;;;;;;;;;5058788;28;20274;-85
2020/12/02 01:20:42;;;;;;;29.15;16.45;;;;;;;;;;5051786;28;20511;-83
2020/12/02 01:23:10;;;;;;;26.83;16.45;;;;;;;;;;5059609;28;20127;-82
2020/12/02 01:25:35;;;;;;;32.15;17.20;;;;;;;;;;5059357;28;20040;-82
2020/12/02 01:28:04;;;;;;;23.90;15.55;;;;;;;;;;5053213;28;20024;-82
2020/12/02 01:30:30;;;;;;;24.65;16.10;;;;;;;;;;5057779;28;20035;-80
2020/12/02 01:32:55;;;;;;;27.80;15.63;;;;;;;;;;5066024;28;20020;-82
2020/12/02 01:35:22;;;;;;;23.77;15.63;;;;;;;;;;5056216;28;20021;-82
2020/12/02 01:37:51;;;;;;;27.10;16.05;;;;;;;;;;5058210;28;20031;-82
2020/12/02 01:40:21;;;;;;;23.23;15.35;;;;;;;;;;5059369;28;20070;-82
2020/12/02 01:42:46;;;;;;;;;;;;;;;;;;5061635;28;20017;-82
2020/12/02 01:45:20;;;;;;;27.92;16.55;;;;;;;;;;5040861;28;20393;-81
2020/12/02 01:48:03;;;;;;;26.55;17.10;;;;;;;;;;5057957;28;20336;-81
2020/12/02 01:50:35;;;;;;;26.23;16.27;;;;;;;;;;5058564;28;20036;-81
2020/12/02 01:53:12;;;;;;;28.90;18.60;;;;;;;;;;5063815;28;20029;-80
2020/12/02 01:55:51;;;;;;;22.05;13.82;;;;;;;;;;5057906;28;20690;-81
2020/12/02 01:58:22;;;;;;;27.17;18.33;;;;;;;;;;5058582;28;20035;-81
2020/12/02 02:00:53;;;;;;;26.15;16.75;;;;;;;;;;5053074;28;20017;-81
2020/12/02 02:03:19;;;;;;;30.45;19.30;;;;;;;;;;5064724;28;20530;-82
2020/12/02 02:06:04;;;;;;;29.50;19.17;;;;;;;;;;5032619;28;20116;-82
2020/12/02 02:08:30;;;;;;;24.30;16.00;;;;;;;;;;5055667;28;20094;-83
2020/12/02 02:10:57;;;;;;;25.83;16.85;;;;;;;;;;5053285;28;20027;-82
2020/12/02 02:13:28;;;;;;;34.70;20.67;;;;;;;;;;5060008;28;20472;-82
2020/12/02 02:16:02;;;;;;;25.60;16.38;;;;;;;;;;5055680;28;20032;-82
2020/12/02 02:18:28;;;;;;;24.70;16.20;;;;;;;;;;5060524;28;20021;-81
2020/12/02 02:20:56;;;;;;;27.85;16.58;;;;;;;;;;5055620;28;20020;-81
2020/12/02 02:23:21;;;;;;;29.30;18.67;;;;;;;;;;5052381;28;20109;-81
2020/12/02 02:26:00;;;;;;;29.40;17.20;;;;;;;;;;5058000;28;20108;-81
2020/12/02 02:28:27;;;;;;;24.70;16.30;;;;;;;;;;5060415;28;20537;-83
2020/12/02 02:30:52;;;;;;;26.38;16.50;;;;;;;;;;5055813;28;20274;-82
2020/12/02 02:33:18;;;;;;;28.83;17.17;;;;;;;;;;5065257;28;20475;-82
2020/12/02 02:35:43;;;;;;;23.73;15.05;;;;;;;;;;5060073;28;20336;-81
2020/12/02 02:38:09;;;;;;;28.13;17.65;;;;;;;;;;5059720;28;20497;-81
2020/12/02 02:40:34;;;;;;;22.20;14.63;;;;;;;;;;5058427;28;20019;-81
2020/12/02 02:43:02;;;;;;;25.63;16.20;;;;;;;;;;5056876;28;20021;-82
2020/12/02 02:45:27;;;;;;;23.90;15.60;;;;;;;;;;5058931;28;20350;-82
2020/12/02 02:47:53;;;;;;;24.70;15.93;;;;;;;;;;5061882;28;20120;-82
2020/12/02 02:50:19;;;;;;;27.08;16.13;;;;;;;;;;5057657;28;20470;-82
2020/12/02 02:52:44;;;;;;;25.83;17.13;;;;;;;;;;5048945;28;20421;-83
2020/12/02 02:55:13;;;;;;;26.73;17.15;;;;;;;;;;5038031;28;20282;-83
2020/12/02 02:57:39;;;;;;;32.70;19.73;;;;;;;;;;5039721;28;20029;-83
2020/12/02 03:00:08;;;;;;;23.58;14.95;;;;;;;;;;5053151;28;20613;-83
2020/12/02 03:02:33;;;;;;;27.67;16.55;;;;;;;;;;5057693;28;20643;-82
2020/12/02 03:04:59;;;;;;;27.30;17.20;;;;;;;;;;5065352;28;20032;-82
2020/12/02 03:07:24;;;;;;;28.15;17.80;;;;;;;;;;5061141;28;20025;-82
2020/12/02 03:09:49;;;;;;;29.58;18.63;;;;;;;;;;5061917;28;20039;-83
2020/12/02 03:12:15;;;;;;;28.33;18.87;;;;;;;;;;5058929;28;20028;-83
2020/12/02 03:14:41;;;;;;;31.38;17.13;;;;;;;;;;5063088;28;21000;-83
2020/12/02 03:17:09;;;;;;;30.80;18.08;;;;;;;;;;5062196;28;20024;-83
2020/12/02 03:19:38;;;;;;;27.98;16.95;;;;;;;;;;5069868;28;20084;-80
2020/12/02 03:22:05;;;;;;;25.98;16.75;;;;;;;;;;5072620;28;20024;-82
2020/12/02 03:24:30;;;;;;;22.65;14.95;;;;;;;;;;5056274;28;20025;-82
2020/12/02 03:26:56;;;;;;;29.35;15.90;;;;;;;;;;5070134;28;20027;-82
2020/12/02 03:29:22;;;;;;;28.33;16.47;;;;;;;;;;5063402;28;20020;-82
2020/12/02 03:31:47;;;;;;;25.95;15.68;;;;;;;;;;5064807;28;20270;-82
2020/12/02 03:34:14;;;;;;;27.77;16.98;;;;;;;;;;5062723;28;20390;-82
2020/12/02 03:36:40;;;;;;;28.10;17.38;;;;;;;;;;5069075;28;20035;-83
2020/12/02 03:39:06;;;;;;;27.35;16.90;;;;;;;;;;5064670;28;20016;-83
2020/12/02 03:41:31;;;;;;;28.40;17.92;;;;;;;;;;5061113;28;20100;-82
2020/12/02 03:43:56;;;;;;;26.92;17.25;;;;;;;;;;5055228;28;20155;-83
2020/12/02 03:46:21;;;;;;;26.10;17.17;;;;;;;;;;5063668;28;20375;-81
2020/12/02 03:48:47;;;;;;;25.73;15.80;;;;;;;;;;5056957;28;20047;-82
2020/12/02 03:51:12;;;;;;;25.73;16.07;;;;;;;;;;5062508;28;20026;-82
2020/12/02 03:53:37;;;;;;;25.10;16.43;;;;;;;;;;5059580;28;20287;-83
2020/12/02 03:56:02;;;;;;;26.92;14.75;;;;;;;;;;5057498;28;20671;-82
2020/12/02 03:58:28;;;;;;;31.42;18.60;;;;;;;;;;5051606;28;20025;-82
2020/12/02 04:00:53;;;;;;;25.43;17.73;;;;;;;;;;5056797;28;20616;-82
2020/12/02 04:03:18;;;;;;;21.50;14.18;;;;;;;;;;5062305;28;20767;-82
2020/12/02 04:05:43;;;;;;;25.97;16.03;;;;;;;;;;5062017;28;20021;-83
2020/12/02 04:08:09;;;;;;;25.00;16.67;;;;;;;;;;5063830;28;20657;-83
2020/12/02 04:10:34;;;;;;;23.90;15.50;;;;;;;;;;5062697;28;20032;-82
2020/12/02 04:12:59;;;;;;;22.27;14.65;;;;;;;;;;5060612;28;20036;-81
2020/12/02 04:15:25;;;;;;;21.27;14.35;;;;;;;;;;5057666;28;20039;-82
2020/12/02 04:17:51;;;;;;;25.02;16.40;;;;;;;;;;5057615;28;20078;-84
2020/12/02 04:20:18;;;;;;;29.67;18.55;;;;;;;;;;5057865;28;20528;-84
2020/12/02 04:22:44;;;;;;;24.33;15.05;;;;;;;;;;5067719;28;20444;-83
2020/12/02 04:25:09;;;;;;;23.73;15.95;;;;;;;;;;5062859;28;20032;-84
2020/12/02 04:27:34;;;;;;;24.75;16.13;;;;;;;;;;5059495;28;20475;-83
2020/12/02 04:30:00;;;;;;;25.17;16.83;;;;;;;;;;5044038;28;20471;-81
2020/12/02 04:32:28;;;;;;;29.77;18.20;;;;;;;;;;5061388;28;20020;-83
2020/12/02 04:34:53;;;;;;;28.17;17.17;;;;;;;;;;5058186;28;20295;-81
2020/12/02 04:37:29;;;;;;;22.93;15.53;;;;;;;;;;5060792;28;20020;-82
2020/12/02 04:39:54;;;;;;;26.73;16.88;;;;;;;;;;5065347;28;20028;-82
2020/12/02 04:42:20;;;;;;;31.33;18.50;;;;;;;;;;5056466;28;20025;-82
2020/12/02 04:44:48;;;;;;;25.40;16.95;;;;;;;;;;5058583;28;20160;-82
2020/12/02 04:47:13;;;;;;;21.83;13.80;;;;;;;;;;5058465;28;20028;-82
2020/12/02 04:49:38;;;;;;;23.15;15.43;;;;;;;;;;5059249;28;20033;-82
2020/12/02 04:52:09;;;;;;;22.65;14.88;;;;;;;;;;5063618;28;20043;-82
2020/12/02 04:54:34;;;;;;;24.30;15.70;;;;;;;;;;5060518;28;20064;-82
2020/12/02 04:56:59;;;;;;;22.50;14.00;;;;;;;;;;5055914;28;20651;-82
2020/12/02 04:59:34;;;;;;;24.05;16.17;;;;;;;;;;5062428;28;20036;-82
2020/12/02 05:01:59;;;;;;;23.20;15.20;;;;;;;;;;5060899;28;20016;-82
2020/12/02 05:04:26;;;;;;;26.25;16.83;;;;;;;;;;5056714;28;20025;-82
2020/12/02 05:07:11;;;;;;;26.08;17.23;;;;;;;;;;5059470;28;20195;-82
2020/12/02 05:09:51;;;;;;;26.42;17.35;;;;;;;;;;5061633;28;20024;-83
2020/12/02 05:12:31;;;;;;;31.25;17.70;;;;;;;;;;5043487;28;20024;-82
2020/12/02 05:15:16;;;;;;;24.40;16.00;;;;;;;;;;5063628;28;20033;-82
2020/12/02 05:17:41;;;;;;;22.85;14.40;;;;;;;;;;5057402;28;20032;-82
2020/12/02 05:20:20;;;;;;;26.40;16.67;;;;;;;;;;5065362;28;20009;-82
2020/12/02 05:22:46;;;;;;;24.30;16.15;;;;;;;;;;5059419;28;20259;-83
2020/12/02 05:25:25;;;;;;;25.38;16.88;;;;;;;;;;5062691;28;20063;-83
2020/12/02 05:28:01;;;;;;;22.83;15.77;;;;;;;;;;5063747;28;20048;-82
2020/12/02 05:30:29;;;;;;;23.20;15.50;;;;;;;;;;5053140;28;20028;-81
2020/12/02 05:33:01;;;;;;;25.55;16.98;;;;;;;;;;5057839;28;20035;-81
2020/12/02 05:35:28;;;;;;;23.85;16.00;;;;;;;;;;5060432;28;20036;-81
2020/12/02 05:37:54;;;;;;;26.73;17.17;;;;;;;;;;5060070;28;20020;-82
2020/12/02 05:40:22;;;;;;;23.00;15.20;;;;;;;;;;5061815;28;20028;-81
2020/12/02 05:42:52;;;;;;;20.33;14.85;;;;;;;;;;5058360;28;20020;-81
2020/12/02 05:45:22;;;;;;;29.35;17.30;;;;;;;;;;5054131;28;20395;-81
2020/12/02 05:47:47;;;;;;;;;;;;;;;;;;5058375;28;20029;-82
2020/12/02 05:50:13;;;;;;;24.10;16.67;;;;;;;;;;5062700;28;19965;-82
2020/12/02 05:52:40;;;;;;;22.33;15.10;;;;;;;;;;5063341;28;20041;-81
2020/12/02 05:55:27;;;;;;;23.58;16.52;;;;;;;;;;5060894;28;20530;-82
2020/12/02 05:57:56;;;;;;;35.15;17.80;;;;;;;;;;5064555;28;20036;-82
2020/12/02 06:00:22;;;;;;;23.80;15.75;;;;;;;;;;5057396;28;20100;-82
2020/12/02 06:02:47;;;;;;;21.02;13.43;;;;;;;;;;5062528;28;20143;-82
2020/12/02 06:05:13;;;;;;;22.20;14.85;;;;;;;;;;5054826;28;20028;-82
2020/12/02 06:07:47;;;;;;;22.67;15.63;;;;;;;;;;5063092;28;20028;-82
2020/12/02 06:10:12;;;;;;;24.00;15.05;;;;;;;;;;5059821;28;20438;-82
2020/12/02 06:12:41;;;;;;;22.30;15.02;;;;;;;;;;5066921;28;20127;-81
2020/12/02 06:15:14;;;;;;;25.10;16.70;;;;;;;;;;5061839;28;20021;-82
2020/12/02 06:17:40;;;;;;;26.67;15.70;;;;;;;;;;5057248;28;20427;-81
2020/12/02 06:20:05;;;;;;;21.75;14.40;;;;;;;;;;5055043;28;20105;-82
2020/12/02 06:22:33;;;;;;;22.60;15.63;;;;;;;;;;5052160;28;20082;-82
2020/12/02 06:24:58;;;;;;;25.27;16.10;;;;;;;;;;5062333;28;20467;-82
2020/12/02 06:27:29;;;;;;;24.67;15.30;;;;;;;;;;5058576;28;20031;-83
2020/12/02 06:30:06;;;;;;;25.05;15.77;;;;;;;;;;5056371;28;20032;-81
2020/12/02 06:32:32;;;;;;;26.50;17.20;;;;;;;;;;5065650;28;20359;-81
2020/12/02 06:35:12;;;;;;;28.95;16.92;;;;;;;;;;5057174;28;20032;-82
2020/12/02 06:37:38;;;;;;;24.20;14.52;;;;;;;;;;5053483;28;20030;-81
2020/12/02 06:40:03;;;;;;;25.48;15.75;;;;;;;;;;5051396;28;20071;-81
2020/12/02 06:42:35;;;;;;;24.52;15.50;;;;;;;;;;5058175;28;20024;-80
2020/12/02 06:45:09;;;;;;;30.70;15.73;;;;;;;;;;5053433;28;20053;-87
2020/12/02 06:47:37;;;;;;;23.73;15.93;;;;;;;;;;5059209;28;20028;-82
2020/12/02 06:50:06;;;;;;;29.80;17.60;;;;;;;;;;5061296;28;20039;-81
2020/12/02 06:52:36;;;;;;;31.77;14.95;;;;;;;;;;5058070;28;20024;-81
2020/12/02 06:55:08;;;;;;;26.08;15.90;;;;;;;;;;5060787;28;20499;-83
2020/12/02 06:57:33;;;;;;;24.20;13.88;;;;;;;;;;5063552;28;20024;-81
2020/12/02 07:00:00;;;;;;;25.10;14.97;;;;;;;;;;5061888;28;20485;-84
2020/12/02 07:02:40;;;;;;;23.80;14.70;;;;;;;;;;5057214;28;20282;-84
2020/12/02 07:05:07;;;;;;;24.38;14.30;;;;;;;;;;5059764;28;20487;-78
2020/12/02 07:07:33;;;;;;;25.15;14.63;;;;;;;;;;5058356;28;20038;-78
2020/12/02 07:09:58;;;;;;;24.63;14.75;;;;;;;;;;5060809;28;20028;-79
2020/12/02 07:12:29;;;;;;;26.08;15.07;;;;;;;;;;5058162;28;20021;-79
2020/12/02 07:14:58;;;;;;;24.05;14.23;;;;;;;;;;5061964;28;20017;-86
2020/12/02 07:17:24;;;;;;;26.13;15.30;;;;;;;;;;5061198;28;20025;-85
2020/12/02 07:19:49;;;;;;;26.65;13.65;;;;;;;;;;5060047;28;20505;-86
2020/12/02 07:22:17;;;;;;;28.15;15.30;;;;;;;;;;5058912;28;20017;-86
2020/12/02 07:24:44;;;;;;;26.88;15.15;;;;;;;;;;5064959;28;20028;-86
2020/12/02 07:27:10;;;;;;;22.35;13.70;;;;;;;;;;5064900;28;20025;-86
2020/12/02 07:29:35;;;;;;;28.88;17.45;;;;;;;;;;5066083;28;20021;-86
2020/12/02 07:32:07;;;;;;;32.88;18.98;;;;;;;;;;5063728;28;20385;-87
2020/12/02 07:34:33;;;;;;;26.80;16.70;;;;;;;;;;5068200;28;20081;-86
2020/12/02 07:37:04;;;;;;;23.23;14.57;;;;;;;;;;5087083;28;20121;-87
2020/12/02 07:39:29;;;;;;;22.90;14.00;;;;;;;;;;5068480;28;20020;-86
2020/12/02 07:42:46;;;;;;;23.83;13.65;;;;;;;;;;5066758;28;20017;-87
2020/12/02 07:45:13;;;;;;;26.92;16.52;;;;;;;;;;5063073;28;20025;-87
2020/12/02 07:47:40;;;;;;;23.63;14.18;;;;;;;;;;5058862;28;20025;-87
2020/12/02 07:50:24;;;;;;;25.50;15.43;;;;;;;;;;5060107;28;20047;-88
2020/12/02 07:52:52;;;;;;;25.60;14.95;;;;;;;;;;5063659;28;20016;-89
2020/12/02 07:55:21;;;;;;;24.45;14.35;;;;;;;;;;5066110;28;20069;-88
2020/12/02 07:57:49;;;;;;;23.55;14.43;;;;;;;;;;5062376;28;20031;-88
2020/12/02 08:00:24;;;;;;;22.60;14.05;;;;;;;;;;5063779;28;20024;-88
2020/12/02 08:02:50;;;;;;;24.40;14.93;;;;;;;;;;5065319;28;20021;-88
2020/12/02 08:05:25;;;;;;;30.92;18.55;;;;;;;;;;5048070;28;20021;-90
2020/12/02 08:08:02;;;;;;;42.65;25.65;;;;;;;;;;5068374;28;20024;-89
2020/12/02 08:10:35;;;;;;;25.58;15.63;;;;;;;;;;5058005;28;20021;-91
2020/12/02 08:13:03;;;;;;;28.05;16.65;;;;;;;;;;5067899;28;20039;-88
2020/12/02 08:15:28;;;;;;;25.45;15.02;;;;;;;;;;5065554;28;20019;-86
2020/12/02 08:18:11;;;;;;;29.35;16.17;;;;;;;;;;5059788;28;20028;-86
2020/12/02 08:20:37;;;;;;;25.83;14.40;;;;;;;;;;5039954;28;20013;-87
2020/12/02 08:23:07;;;;;;;23.67;14.60;;;;;;;;;;5070613;28;20115;-90
2020/12/02 08:25:35;;;;;;;32.83;16.42;;;;;;;;;;5065983;28;20047;-91
2020/12/02 08:28:05;;;;;;;27.58;15.88;;;;;;;;;;5063094;28;20103;-90
2020/12/02 08:30:30;;;;;;;;;;;;;;;;;;5043749;28;20194;-89
2020/12/02 08:32:55;;;;;;;26.30;14.63;;;;;;;;;;5047848;28;19962;-87
2020/12/02 08:35:25;;;;;;;24.77;13.53;;;;;;;;;;5063881;28;20127;-87
2020/12/02 08:37:52;;;;;;;29.45;16.27;;;;;;;;;;5066970;28;20295;-89
2020/12/02 08:40:21;;;;;;;28.83;16.23;;;;;;;;;;5063894;28;20038;-87
2020/12/02 08:42:47;;;;;;;24.67;14.43;;;;;;;;;;5077039;28;20020;-88
2020/12/02 08:45:17;;;;;;;26.35;14.88;;;;;;;;;;5076014;28;20039;-88
2020/12/02 08:47:42;;;;;;;;;;;;;;;;;;5081230;28;20024;-87
2020/12/02 08:50:09;;;;;;;24.48;14.32;;;;;;;;;;5077290;28;19924;-88
2020/12/02 08:52:35;;;;;;;25.90;14.88;;;;;;;;;;5081679;28;20036;-87
2020/12/02 08:55:00;;;;;;;23.63;14.82;;;;;;;;;;5080670;28;20045;-88
2020/12/02 08:57:28;;;;;;;29.85;15.90;;;;;;;;;;5078400;28;20128;-89
2020/12/02 08:59:54;;;;;;;22.83;13.63;;;;;;;;;;5050628;28;20021;-85
2020/12/02 09:02:22;;;;;;;23.20;13.70;;;;;;;;;;5058741;28;20020;-84
2020/12/02 09:04:48;;;;;;;24.98;14.23;;;;;;;;;;5073927;28;20019;-84
2020/12/02 09:07:14;;;;;;;25.27;14.10;;;;;;;;;;5056786;28;20056;-84
2020/12/02 09:09:42;;;;;;;24.10;13.52;;;;;;;;;;5061067;28;20455;-84
2020/12/02 09:12:08;;;;;;;26.58;13.35;;;;;;;;;;5055177;28;20070;-85
2020/12/02 09:14:35;;;;;;;31.88;13.98;;;;;;;;;;5061742;28;20020;-85
2020/12/02 09:17:03;;;;;;;24.25;14.02;;;;;;;;;;5055357;28;20047;-82
2020/12/02 09:19:30;;;;;;;20.88;13.00;;;;;;;;;;5064724;28;20028;-84
2020/12/02 09:21:56;;;;;;;21.92;12.82;;;;;;;;;;5056790;28;20115;-83
2020/12/02 09:24:21;;;;;;;25.17;14.40;;;;;;;;;;5063228;28;20445;-86
2020/12/02 09:26:46;;;;;;;20.83;13.32;;;;;;;;;;5042012;28;20029;-85
2020/12/02 09:29:15;;;;;;;22.20;11.75;;;;;;;;;;5063945;28;20028;-84
2020/12/02 09:31:42;;;;;;;22.48;12.77;;;;;;;;;;5043590;28;20032;-82
2020/12/02 09:34:08;;;;;;;19.35;10.93;;;;;;;;;;5039759;28;20032;-82
2020/12/02 09:36:34;;;;;;;18.83;11.82;;;;;;;;;;5062492;28;20074;-85
2020/12/02 09:38:59;;;;;;;19.60;12.00;;;;;;;;;;5056402;28;20120;-85
2020/12/02 09:41:33;;;;;;;19.42;11.85;;;;;;;;;;5064301;28;20550;-82
2020/12/02 09:44:10;;;;;;;19.67;11.90;;;;;;;;;;5058957;28;20033;-83
2020/12/02 09:46:37;;;;;;;18.60;11.88;;;;;;;;;;5055670;28;20048;-83
2020/12/02 09:49:02;;;;;;;20.13;11.30;;;;;;;;;;5052325;28;20031;-83
2020/12/02 09:51:29;;;;;;;19.23;10.85;;;;;;;;;;5065046;28;20028;-84
2020/12/02 09:53:56;;;;;;;23.33;13.13;;;;;;;;;;5058757;28;20132;-85
2020/12/02 09:56:21;;;;;;;16.95;9.95;;;;;;;;;;5049232;28;20048;-82
2020/12/02 09:58:47;;;;;;;18.42;9.93;;;;;;;;;;5060691;28;20047;-82
2020/12/02 10:01:16;;;;;;;20.92;10.35;;;;;;;;;;5060822;28;20028;-83
2020/12/02 10:04:00;;;;;;;17.00;10.15;;;;;;;;;;5056884;28;20016;-83
2020/12/02 10:06:44;;;;;;;18.10;11.13;;;;;;;;;;5055608;28;20119;-83
2020/12/02 10:09:20;;;;;;;19.60;11.02;;;;;;;;;;5057078;28;20732;-84
2020/12/02 10:11:53;;;;;;;17.42;10.35;;;;;;;;;;5063355;28;20526;-84
2020/12/02 10:14:27;;;;;;;17.10;8.88;;;;;;;;;;5052184;28;20053;-83
2020/12/02 10:17:02;;;;;;;17.10;10.07;;;;;;;;;;5061911;28;20021;-83
2020/12/02 10:19:27;;;;;;;18.15;10.50;;;;;;;;;;5059581;28;20025;-84
2020/12/02 10:22:11;;;;;;;16.33;9.63;;;;;;;;;;5059494;28;20025;-85
2020/12/02 10:24:36;;;;;;;16.58;9.77;;;;;;;;;;5041388;28;20016;-85
2020/12/02 10:27:14;;;;;;;18.97;10.30;;;;;;;;;;5057156;28;20501;-85
2020/12/02 10:29:47;;;;;;;15.80;10.00;;;;;;;;;;5061369;28;20313;-86
2020/12/02 10:32:12;;;;;;;18.70;10.65;;;;;;;;;;5062186;28;20077;-83
2020/12/02 10:34:42;;;;;;;19.83;12.68;;;;;;;;;;5062503;28;20028;-85
2020/12/02 10:37:31;;;;;;;25.70;15.38;;;;;;;;;;5061889;28;20013;-85
2020/12/02 10:39:57;;;;;;;24.58;13.23;;;;;;;;;;5060239;28;20031;-90
2020/12/02 10:42:46;;;;;;;25.10;14.60;;;;;;;;;;5067357;28;20523;-86
2020/12/02 10:45:13;;;;;;;25.13;13.80;;;;;;;;;;5064340;28;20066;-83
2020/12/02 10:47:45;;;;;;;25.65;14.10;;;;;;;;;;5063412;28;20108;-86
2020/12/02 10:50:10;;;;;;;30.35;16.08;;;;;;;;;;5041912;28;20078;-85
2020/12/02 10:52:35;;;;;;;27.87;15.93;;;;;;;;;;5047378;28;20020;-89
2020/12/02 10:55:01;;;;;;;25.90;14.97;;;;;;;;;;5068024;28;20291;-90
2020/12/02 10:57:26;;;;;;;25.88;14.60;;;;;;;;;;5067768;28;20288;-87
2020/12/02 10:59:53;;;;;;;30.90;16.35;;;;;;;;;;5068916;28;20111;-89
2020/12/02 11:02:21;;;;;;;27.90;16.17;;;;;;;;;;5065362;28;20078;-87
2020/12/02 11:04:47;;;;;;;30.63;15.98;;;;;;;;;;5067812;28;20024;-85
2020/12/02 11:07:28;;;;;;;28.35;15.05;;;;;;;;;;5066877;28;20028;-88
2020/12/02 11:09:57;;;;;;;32.85;17.75;;;;;;;;;;5065993;28;20108;-87
2020/12/02 11:12:37;;;;;;;31.38;17.73;;;;;;;;;;5064952;28;20025;-87
2020/12/02 11:15:16;;;;;;;28.38;16.35;;;;;;;;;;5068182;28;20048;-87
2020/12/02 11:17:44;;;;;;;30.05;16.17;;;;;;;;;;5052832;28;20086;-88
2020/12/02 11:20:14;;;;;;;29.75;17.42;;;;;;;;;;5067760;28;20027;-88
2020/12/02 11:22:58;;;;;;;32.13;16.55;;;;;;;;;;5063086;28;20031;-91
2020/12/02 11:25:26;;;;;;;30.17;17.20;;;;;;;;;;5062515;28;20089;-85
2020/12/02 11:27:52;;;;;;;31.90;17.33;;;;;;;;;;5059450;28;20108;-84
2020/12/02 11:30:28;;;;;;;30.42;17.33;;;;;;;;;;5062771;28;20111;-86
2020/12/02 11:33:13;;;;;;;33.28;18.10;;;;;;;;;;5056748;28;20044;-84
2020/12/02 11:36:01;;;;;;;30.73;16.75;;;;;;;;;;5060772;28;20371;-85
2020/12/02 11:38:29;;;;;;;34.00;18.02;;;;;;;;;;5022931;28;20021;-87
2020/12/02 11:40:57;;;;;;;32.35;17.45;;;;;;;;;;5066544;28;20036;-86
2020/12/02 11:43:22;;;;;;;30.75;15.52;;;;;;;;;;5062262;28;20019;-85
2020/12/02 11:45:49;;;;;;;29.27;15.93;;;;;;;;;;5065159;28;20587;-86
2020/12/02 11:48:23;;;;;;;28.92;16.55;;;;;;;;;;5072945;28;20024;-87
2020/12/02 11:50:48;;;;;;;29.80;16.33;;;;;;;;;;5064958;28;20025;-86
2020/12/02 11:53:26;;;;;;;36.40;20.77;;;;;;;;;;5074746;28;20490;-86
2020/12/02 11:55:52;;;;;;;36.05;17.15;;;;;;;;;;5072067;28;20499;-84
2020/12/02 11:58:18;;;;;;;27.63;16.25;;;;;;;;;;5059287;28;20084;-88
2020/12/02 12:00:43;;;;;;;29.98;17.23;;;;;;;;;;5058141;28;20023;-89
2020/12/02 12:03:23;;;;;;;28.90;16.17;;;;;;;;;;5064691;28;20025;-88
2020/12/02 12:06:00;;;;;;;33.53;16.90;;;;;;;;;;5066659;28;20048;-89
2020/12/02 12:08:31;;;;;;;30.48;16.85;;;;;;;;;;5055945;28;20028;-87
2020/12/02 12:10:59;;;;;;;29.95;17.02;;;;;;;;;;5062816;28;20025;-86
2020/12/02 12:13:43;;;;;;;31.88;16.88;;;;;;;;;;5064859;28;20021;-86
2020/12/02 12:16:17;;;;;;;28.35;15.32;;;;;;;;;;5045625;28;20029;-87
2020/12/02 12:18:47;;;;;;;29.40;17.45;;;;;;;;;;5061328;28;20085;-86
2020/12/02 12:21:12;;;;;;;28.52;15.75;;;;;;;;;;5061292;28;20104;-86
2020/12/02 12:23:56;;;;;;;33.27;16.23;;;;;;;;;;5057623;28;20117;-86
2020/12/02 12:26:22;;;;;;;29.05;16.05;;;;;;;;;;5059418;28;20989;-84
2020/12/02 12:28:49;;;;;;;29.23;16.35;;;;;;;;;;5064430;28;20035;-87
2020/12/02 12:31:29;;;;;;;32.78;18.17;;;;;;;;;;5050663;28;20020;-86
2020/12/02 12:33:59;;;;;;;32.25;17.45;;;;;;;;;;5062374;28;20027;-87
2020/12/02 12:36:24;;;;;;;35.28;17.70;;;;;;;;;;5060106;28;20509;-85
2020/12/02 12:38:59;;;;;;;32.60;17.30;;;;;;;;;;5068790;28;20150;-88
2020/12/02 12:41:30;;;;;;;36.38;18.48;;;;;;;;;;5064396;28;20078;-85
2020/12/02 12:43:59;;;;;;;35.40;19.35;;;;;;;;;;5066846;28;20099;-87
2020/12/02 12:46:33;;;;;;;36.97;19.10;;;;;;;;;;5068429;28;20032;-85
2020/12/02 12:48:58;;;;;;;34.55;18.30;;;;;;;;;;5044049;28;20024;-86
2020/12/02 12:51:26;;;;;;;29.73;17.33;;;;;;;;;;5063774;28;20044;-87
2020/12/02 12:53:52;;;;;;;33.13;17.85;;;;;;;;;;5065622;28;20326;-88
2020/12/02 12:56:17;;;;;;;33.95;17.77;;;;;;;;;;5057846;28;20040;-87
2020/12/02 12:58:42;;;;;;;29.45;15.15;;;;;;;;;;5066135;28;20021;-88
2020/12/02 13:01:11;;;;;;;30.13;16.60;;;;;;;;;;5044876;28;20055;-86
2020/12/02 13:03:37;;;;;;;27.50;14.77;;;;;;;;;;5071172;28;21460;-89
2020/12/02 13:06:21;;;;;;;30.20;15.68;;;;;;;;;;5071300;28;20054;-90
2020/12/02 13:09:06;;;;;;;30.98;16.33;;;;;;;;;;5049339;28;20033;-90
2020/12/02 13:11:37;;;;;;;33.25;17.15;;;;;;;;;;5051544;28;20028;-90
2020/12/02 13:14:05;;;;;;;31.77;17.70;;;;;;;;;;5070730;28;20017;-86
2020/12/02 13:16:36;;;;;;;33.45;18.58;;;;;;;;;;5071290;28;20032;-90
2020/12/02 13:19:13;;;;;;;32.72;17.02;;;;;;;;;;5067011;28;20078;-91
2020/12/02 13:21:42;;;;;;;39.25;17.40;;;;;;;;;;5061686;28;20107;-87
2020/12/02 13:24:22;;;;;;;34.78;18.15;;;;;;;;;;5057750;28;20386;-85
2020/12/02 13:26:53;;;;;;;36.50;17.45;;;;;;;;;;5060438;28;20021;-86
2020/12/02 13:29:28;;;;;;;31.02;16.52;;;;;;;;;;5060892;28;20019;-86
2020/12/02 13:32:05;;;;;;;33.15;15.85;;;;;;;;;;5062440;28;20017;-83
2020/12/02 13:34:30;;;;;;;28.42;15.45;;;;;;;;;;5062963;28;20035;-83
2020/12/02 13:37:16;;;;;;;33.92;17.33;;;;;;;;;;5046110;28;20035;-82
2020/12/02 13:40:02;;;;;;;36.10;17.80;;;;;;;;;;5046525;28;20498;-85
2020/12/02 13:42:48;;;;;;;33.17;18.77;;;;;;;;;;5050985;28;20021;-83
2020/12/02 13:45:33;;;;;;;32.88;17.80;;;;;;;;;;5055639;28;20101;-83
2020/12/02 13:48:21;;;;;;;33.75;17.50;;;;;;;;;;5048414;28;20070;-81
2020/12/02 13:51:19;;;;;;;41.28;18.70;;;;;;;;;;5046157;28;20467;-82
2020/12/02 13:54:11;;;;;;;29.88;16.85;;;;;;;;;;5047687;28;20037;-85
2020/12/02 13:56:58;;;;;;;34.90;19.35;;;;;;;;;;5041223;28;20158;-84
2020/12/02 13:59:46;;;;;;;34.40;19.10;;;;;;;;;;5047636;28;20467;-86
2020/12/02 14:02:40;;;;;;;34.47;19.50;;;;;;;;;;5042371;28;20612;-85
2020/12/02 14:05:31;;;;;;;33.53;17.35;;;;;;;;;;5048849;28;20034;-84
2020/12/02 14:08:16;;;;;;;34.40;17.85;;;;;;;;;;5048601;28;20430;-84
2020/12/02 14:11:03;;;;;;;30.65;18.27;;;;;;;;;;5048196;28;20119;-82
2020/12/02 14:13:48;;;;;;;32.88;18.38;;;;;;;;;;5044554;28;20102;-82
2020/12/02 14:16:39;;;;;;;34.50;18.58;;;;;;;;;;5046100;28;20025;-84
2020/12/02 14:19:24;;;;;;;30.98;16.63;;;;;;;;;;5041530;28;20450;-83
2020/12/02 14:22:13;;;;;;;32.55;17.95;;;;;;;;;;5042591;28;20032;-83
2020/12/02 14:25:01;;;;;;;43.33;20.65;;;;;;;;;;5045278;28;20374;-84
2020/12/02 14:27:48;;;;;;;35.53;17.13;;;;;;;;;;5050321;28;20032;-84
2020/12/02 14:30:35;;;;;;;36.78;17.85;;;;;;;;;;5036429;28;20096;-81
2020/12/02 14:33:23;;;;;;;31.33;16.23;;;;;;;;;;5041352;28;20035;-82
2020/12/02 14:36:08;;;;;;;30.60;17.00;;;;;;;;;;5046796;28;20036;-86
2020/12/02 14:38:53;;;;;;;42.05;22.48;;;;;;;;;;5048187;28;20032;-82